Time;durP1;ratioP1;P1;durP2;ratioP2;P2;SDS_P1;SDS_P2;PMS_P1;PMS_P2;Temp;Humidity;BMP_temperature;BMP_pressure;BME280_temperature;BME280_humidity;BME280_pressure;Samples;Min_cycle;Max_cycle;Signal;HPM_P1;HPM_P2
2023/10/07 00:01:45;;;;;;;;;16.33;16.33;;;;;18.47;59.48;101833.47;6249222;22;44879;-82
2023/10/07 00:04:17;;;;;;;;;16.00;16.00;;;;;18.37;59.70;101815.53;6237317;22;46430;-82
2023/10/07 00:06:45;;;;;;;;;12.00;11.33;;;;;18.21;59.54;101794.91;6212964;22;45252;-83
2023/10/07 00:09:12;;;;;;;;;17.33;14.00;;;;;18.28;59.74;101791.28;6239403;22;45334;-83
2023/10/07 00:11:38;;;;;;;;;16.00;15.00;;;;;18.40;59.74;101820.94;6211960;22;44797;-83
2023/10/07 00:14:08;;;;;;;;;15.00;14.00;;;;;18.31;59.76;101800.28;6212528;22;44730;-83
2023/10/07 00:16:36;;;;;;;;;17.33;17.00;;;;;18.35;59.84;101803.88;6212663;22;44899;-82
2023/10/07 00:19:03;;;;;;;;;18.67;16.33;;;;;18.29;60.00;101803.88;6238696;22;44960;-83
2023/10/07 00:24:43;;;;;;;;;14.00;14.00;;;;;18.23;60.39;101767.06;6226905;22;45074;-82
2023/10/07 00:27:26;;;;;;;;;18.67;16.33;;;;;18.00;60.37;101783.25;6242914;22;44840;-83
2023/10/07 00:29:54;;;;;;;;;16.00;13.33;;;;;18.05;60.59;101797.59;6243040;22;47243;-83
2023/10/07 00:32:26;;;;;;;;;19.00;15.67;;;;;17.95;60.69;101779.66;6269518;22;44772;-82
2023/10/07 00:35:01;;;;;;;;;15.67;14.67;;;;;18.26;60.82;101803.88;6243052;22;44879;-82
2023/10/07 00:37:35;;;;;;;;;14.00;13.00;;;;;18.00;60.57;101785.94;6242757;22;44851;-81
2023/10/07 00:40:14;;;;;;;;;15.67;14.33;;;;;18.34;60.25;101791.28;6268837;22;45571;-81
2023/10/07 00:42:45;;;;;;;;;13.00;13.00;;;;;18.29;60.92;101810.16;6243563;22;45139;-81
2023/10/07 00:45:16;;;;;;;;;14.67;14.67;;;;;18.25;60.86;101810.16;6270357;22;44785;-81
2023/10/07 00:47:49;;;;;;;;;18.00;16.00;;;;;18.23;60.71;101780.53;6217432;22;46262;-82
2023/10/07 00:50:15;;;;;;;;;14.33;11.33;;;;;18.06;60.97;101775.19;6211672;22;47366;-82
2023/10/07 00:55:31;;;;;;;;;12.67;12.00;;;;;18.48;60.85;101800.28;6226571;22;45216;-82
2023/10/07 01:00:47;;;;;;;;;12.00;12.00;;;;;18.35;61.22;101803.88;6235180;22;44842;-82
2023/10/07 01:08:27;;;;;;;;;11.67;11.67;;;;;18.32;61.40;101795.78;6207645;22;45680;-83
2023/10/07 01:10:54;;;;;;;;;13.67;10.00;;;;;18.27;60.91;101789.53;6184722;22;47290;-83
2023/10/07 01:13:29;;;;;;;;;17.00;15.00;;;;;18.30;61.48;101787.72;6212927;22;45443;-83
2023/10/07 01:15:55;;;;;;;;;14.00;12.00;;;;;18.29;61.36;101774.25;6186688;22;45454;-83
2023/10/07 01:18:21;;;;;;;;;12.67;11.33;;;;;18.30;61.47;101776.97;6214362;22;45334;-83
2023/10/07 01:23:23;;;;;;;;;10.67;9.00;;;;;18.30;61.32;101779.66;6213218;22;45684;-83
2023/10/07 01:25:50;;;;;;;;;13.67;9.33;;;;;18.30;61.28;101779.66;6212961;22;45614;-83
2023/10/07 01:28:20;;;;;;;;;11.33;9.33;;;;;18.41;61.85;101759.88;6212993;22;45345;-83
2023/10/07 01:31:07;;;;;;;;;7.00;7.00;;;;;18.39;61.84;101759.88;6212199;22;46282;-84
2023/10/07 01:33:45;;;;;;;;;10.00;8.00;;;;;18.41;61.87;101755.38;6211575;22;44914;-84
2023/10/07 01:38:43;;;;;;;;;8.00;8.00;;;;;18.21;62.01;101722.22;6264491;22;44862;-83
2023/10/07 01:41:19;;;;;;;;;7.00;7.00;;;;;18.34;61.81;101750.91;6242254;22;47290;-83
2023/10/07 01:43:58;;;;;;;;;10.00;9.00;;;;;18.24;62.20;101741.03;6269165;22;44803;-83
2023/10/07 01:46:29;;;;;;;;;9.67;9.67;;;;;18.38;62.13;101755.41;6269872;22;44843;-83
2023/10/07 01:49:01;;;;;;;;;10.33;9.67;;;;;18.06;62.52;101723.16;6219077;22;46786;-82
2023/10/07 01:54:08;;;;;;;;;10.33;10.33;;;;;18.31;62.80;101750.91;6238614;22;44781;-84
2023/10/07 01:56:33;;;;;;;;;16.67;10.00;;;;;18.01;63.01;101717.75;6187678;22;45309;-84
2023/10/07 01:59:09;;;;;;;;;9.00;8.00;;;;;18.23;63.22;101744.66;6213071;22;45353;-82
2023/10/07 02:01:35;;;;;;;;;14.00;11.00;;;;;18.07;62.99;101739.28;6185082;22;46745;-82
2023/10/07 02:04:06;;;;;;;;;8.00;8.00;;;;;18.17;63.11;101746.44;6213143;22;44716;-82
2023/10/07 02:06:42;;;;;;;;;12.00;11.33;;;;;18.12;63.08;101737.47;6185500;22;45365;-82
2023/10/07 02:09:08;;;;;;;;;14.33;10.33;;;;;18.22;62.34;101759.00;6213668;22;45414;-82
2023/10/07 02:11:36;;;;;;;;;17.67;14.67;;;;;18.16;62.28;101766.19;6184528;22;47307;-82
2023/10/07 02:14:02;;;;;;;;;13.00;13.00;;;;;18.13;62.56;101763.50;6213081;22;45696;-82
2023/10/07 02:16:27;;;;;;;;;16.00;14.00;;;;;18.17;62.22;101767.97;6211236;22;45364;-82
2023/10/07 02:18:53;;;;;;;;;12.67;12.00;;;;;18.05;62.77;101773.38;6186091;22;45401;-82
2023/10/07 02:21:20;;;;;;;;;12.33;10.67;;;;;18.13;62.75;101784.16;6186979;22;46577;-82
2023/10/07 02:23:47;;;;;;;;;16.00;14.00;;;;;18.14;62.85;101788.66;6212824;22;45380;-82
2023/10/07 02:28:43;;;;;;;;;17.67;15.33;;;;;17.97;63.32;101772.47;6214871;22;45486;-82
2023/10/07 02:31:15;;;;;;;;;13.33;13.33;;;;;17.89;63.56;101771.59;6187201;22;46951;-82
2023/10/07 02:33:42;;;;;;;;;18.00;17.33;;;;;17.95;63.20;101788.63;6187521;22;45066;-82
2023/10/07 02:36:27;;;;;;;;;18.00;17.00;;;;;18.01;63.84;101785.03;6187127;22;44899;-81
2023/10/07 02:39:04;;;;;;;;;17.00;17.00;;;;;17.90;64.32;101790.44;6215925;22;45376;-82
2023/10/07 02:41:31;;;;;;;;;15.00;15.00;;;;;17.87;64.26;101794.91;6188856;22;47818;-82
2023/10/07 02:44:04;;;;;;;;;16.67;15.33;;;;;17.85;64.36;101791.31;6188462;22;45412;-82
2023/10/07 02:46:32;;;;;;;;;17.00;15.67;;;;;17.80;64.51;101778.72;6213619;22;44777;-82
2023/10/07 02:49:04;;;;;;;;;16.00;15.67;;;;;17.82;64.47;101776.03;6186390;22;45362;-82
2023/10/07 02:51:34;;;;;;;;;17.00;16.00;;;;;17.75;64.38;101767.06;6213919;22;45420;-82
2023/10/07 02:54:15;;;;;;;;;18.67;17.00;;;;;17.75;64.83;101780.53;6157864;23;45384;-83
2023/10/07 02:56:44;;;;;;;;;17.00;17.00;;;;;17.66;64.79;101763.47;6183369;23;44800;-84
2023/10/07 02:59:28;;;;;;;;;20.00;19.00;;;;;17.84;64.98;101768.91;6158443;23;45354;-83
2023/10/07 03:05:44;;;;;;;;;24.00;19.67;;;;;17.74;65.13;101773.34;6186684;23;45361;-84
2023/10/07 03:07:49;;;;;;;;;19.67;18.33;;;;;17.49;65.92;101776.88;6163813;23;45345;-83
2023/10/07 03:10:18;;;;;;;;;15.67;15.33;;;;;17.49;66.03;101772.41;6186327;23;45641;-83
2023/10/07 03:12:48;;;;;;;;;17.67;16.33;;;;;17.67;66.57;101778.69;6185629;23;45230;-84
2023/10/07 03:15:30;;;;;;;;;13.33;12.67;;;;;17.62;66.44;101772.44;6159644;23;45694;-84
2023/10/07 03:17:55;;;;;;;;;12.00;12.00;;;;;17.49;66.41;101776.88;6160813;23;45260;-83
2023/10/07 03:20:28;;;;;;;;;16.33;15.33;;;;;17.53;66.41;101778.66;6196845;22;44868;-83
2023/10/07 03:26:05;;;;;;;;;17.67;15.00;;;;;17.49;66.76;101776.88;6183479;23;45353;-82
2023/10/07 03:28:36;;;;;;;;;12.33;11.67;;;;;17.59;67.00;101786.75;6184521;23;45371;-83
2023/10/07 03:31:08;;;;;;;;;12.33;10.67;;;;;17.52;67.05;101791.22;6158486;23;45247;-83
2023/10/07 03:33:51;;;;;;;;;13.33;10.00;;;;;17.47;67.13;101778.66;6159668;23;47996;-83
2023/10/07 03:39:16;;;;;;;;;9.67;9.00;;;;;17.54;67.27;101784.06;6185370;23;45334;-82
2023/10/07 03:41:47;;;;;;;;;14.67;13.00;;;;;17.39;67.28;101790.31;6159290;23;45512;-83
2023/10/07 03:44:16;;;;;;;;;13.67;11.67;;;;;17.36;67.61;101792.09;6158886;23;47248;-80
2023/10/07 03:46:44;;;;;;;;;14.33;12.67;;;;;17.38;67.74;101775.06;6157481;23;46228;-81
2023/10/07 03:49:11;;;;;;;;;8.33;7.67;;;;;17.35;67.53;101780.44;6184409;23;45399;-81
2023/10/07 03:51:36;;;;;;;;;13.33;12.00;;;;;17.33;67.71;101778.63;6158518;23;45377;-81
2023/10/07 03:54:15;;;;;;;;;11.00;11.00;;;;;17.37;68.09;101789.41;6213490;22;46259;-81
2023/10/07 03:56:41;;;;;;;;;11.00;11.00;;;;;17.36;67.68;101784.03;6189328;22;45235;-81
2023/10/07 03:59:06;;;;;;;;;14.50;12.50;;;;;17.33;67.98;101775.94;6216539;22;45357;-81
2023/10/07 04:01:42;;;;;;;;;9.67;9.67;;;;;17.52;68.04;101771.50;6213575;22;44980;-80
2023/10/07 04:06:47;;;;;;;;;10.00;9.67;;;;;17.14;68.03;101732.88;6173944;22;45834;-84
2023/10/07 04:09:12;;;;;;;;;15.00;13.00;;;;;17.26;68.20;101766.97;6239932;22;44768;-83
2023/10/07 04:11:50;;;;;;;;;12.33;12.00;;;;;17.42;68.36;101770.59;6144173;22;45840;-82
2023/10/07 04:14:19;;;;;;;;;12.00;12.00;;;;;17.23;67.99;101737.41;6209062;22;45568;-84
2023/10/07 04:16:52;;;;;;;;;13.67;13.67;;;;;17.44;68.08;101752.66;6193649;22;45595;-83
2023/10/07 04:21:50;;;;;;;;;11.67;11.67;;;;;17.27;68.39;101755.34;6184724;23;45375;-82
2023/10/07 04:24:16;;;;;;;;;14.33;12.33;;;;;17.23;68.60;101764.28;6182490;23;46973;-83
2023/10/07 04:26:54;;;;;;;;;6.00;6.00;;;;;17.37;68.35;101784.03;6184852;23;45003;-84
2023/10/07 04:29:21;;;;;;;;;14.00;12.33;;;;;17.27;69.07;101757.09;6182052;22;45022;-83
2023/10/07 04:34:25;;;;;;;;;13.00;13.00;;;;;17.24;69.69;101776.81;6233036;22;46150;-83
2023/10/07 04:40:27;;;;;;;;;13.33;12.00;;;;;17.27;70.34;101755.34;6225285;22;44893;-82
2023/10/07 04:43:25;;;;;;;;;14.33;11.67;;;;;17.07;70.71;101751.69;6197373;22;45377;-83
2023/10/07 04:45:36;;;;;;;;;16.33;15.33;;;;;17.13;70.92;101762.47;6267762;22;45132;-82
2023/10/07 04:50:38;;;;;;;;;13.33;12.33;;;;;17.20;71.33;101773.22;6177374;22;46380;-81
2023/10/07 04:53:05;;;;;;;;;12.00;11.33;;;;;17.00;71.10;101745.38;6243515;22;44888;-83
2023/10/07 04:55:32;;;;;;;;;15.00;15.00;;;;;17.00;71.09;101750.75;6242910;22;47279;-82
2023/10/07 04:57:59;;;;;;;;;11.67;11.67;;;;;16.98;71.00;101741.78;6215414;22;45143;-83
2023/10/07 05:05:35;;;;;;;;;13.67;12.67;;;;;17.21;70.84;101771.44;6128116;22;46898;-82
2023/10/07 05:08:17;;;;;;;;;17.00;14.00;;;;;17.18;71.18;101744.53;6243280;22;44795;-83
2023/10/07 05:11:04;;;;;;;;;17.67;17.67;;;;;17.22;71.07;101737.38;6266718;22;44822;-83
2023/10/07 05:16:08;;;;;;;;;14.00;13.00;;;;;17.30;71.09;101775.94;6244829;22;45377;-83
2023/10/07 05:36:29;;;;;;;;;16.67;13.67;;;;;17.54;70.58;101775.09;6110078;22;46568;-81
2023/10/07 05:44:06;;;;;;;;;12.00;11.33;;;;;17.21;71.01;101758.00;6114650;22;46719;-83
2023/10/07 05:56:50;;;;;;;;;14.00;13.00;;;;;17.27;71.35;101766.09;6222820;22;44823;-80
2023/10/07 05:59:16;;;;;;;;;15.33;13.33;;;;;17.25;71.39;101765.19;6224061;22;45987;-81
2023/10/07 06:01:42;;;;;;;;;16.00;14.00;;;;;17.32;71.16;101771.47;6201666;22;44782;-82
2023/10/07 06:04:08;;;;;;;;;17.33;17.33;;;;;17.12;71.13;101755.28;6228047;22;44844;-81
2023/10/07 06:06:34;;;;;;;;;17.00;14.33;;;;;17.27;71.24;101771.47;6186945;22;45313;-82
2023/10/07 06:09:03;;;;;;;;;15.67;13.67;;;;;17.18;71.55;101756.19;6211002;22;47243;-82
2023/10/07 06:11:31;;;;;;;;;13.00;13.00;;;;;17.25;71.51;101757.13;6185640;22;44885;-81
2023/10/07 06:13:57;;;;;;;;;14.67;13.67;;;;;17.23;71.72;101775.03;6214203;22;45210;-81
2023/10/07 06:16:23;;;;;;;;;14.00;13.00;;;;;17.27;71.82;101781.28;6187394;22;45096;-80
2023/10/07 06:18:49;;;;;;;;;14.33;14.00;;;;;17.27;71.70;101778.59;6214123;22;44861;-81
2023/10/07 06:21:27;;;;;;;;;13.33;11.00;;;;;17.28;72.02;101784.00;6216325;22;45289;-80
2023/10/07 06:23:58;;;;;;;;;12.33;12.33;;;;;17.30;71.86;101775.94;6216754;22;44875;-81
2023/10/07 06:26:24;;;;;;;;;14.67;12.00;;;;;17.27;71.93;101782.22;6189117;22;44729;-81
2023/10/07 06:28:50;;;;;;;;;7.00;6.00;;;;;17.35;71.71;101776.84;6188205;22;47546;-80
2023/10/07 06:31:22;;;;;;;;;14.33;14.33;;;;;17.55;71.66;101777.81;6215015;22;44941;-81
2023/10/07 06:34:03;;;;;;;;;13.67;13.00;;;;;17.43;71.74;101772.41;6187621;22;44902;-82
2023/10/07 06:36:30;;;;;;;;;13.00;13.00;;;;;17.57;71.74;101778.69;6186910;22;44871;-81
2023/10/07 06:39:01;;;;;;;;;15.00;13.00;;;;;17.61;71.70;101787.66;6213377;22;45049;-81
2023/10/07 06:41:29;;;;;;;;;14.00;13.00;;;;;17.64;71.30;101782.28;6212504;22;45364;-81
2023/10/07 06:44:08;;;;;;;;;15.00;13.67;;;;;17.70;71.68;101784.09;6213148;22;44809;-80
2023/10/07 06:46:40;;;;;;;;;17.67;14.33;;;;;17.76;71.39;101787.69;6185980;22;45353;-81
2023/10/07 06:49:19;;;;;;;;;12.00;12.00;;;;;17.91;71.06;101788.63;6185809;22;46993;-81
2023/10/07 06:51:45;;;;;;;;;13.33;12.00;;;;;17.96;71.28;101789.53;6213879;22;44714;-81
2023/10/07 06:54:14;;;;;;;;;14.00;13.67;;;;;18.00;71.15;101794.03;6185584;22;45361;-81
2023/10/07 06:56:39;;;;;;;;;13.67;11.67;;;;;17.90;71.09;101768.00;6236067;22;44807;-81
2023/10/07 06:59:06;;;;;;;;;15.00;14.00;;;;;18.02;71.11;101780.53;6217165;22;47072;-81
2023/10/07 07:01:51;;;;;;;;;12.33;10.00;;;;;18.22;70.90;101797.63;6216019;22;44865;-81
2023/10/07 12:48:27;;;;;;;;;6.67;6.67;;;;;25.77;50.45;101835.34;6149664;22;46501;-81
2023/10/07 12:50:52;;;;;;;;;2.00;2.00;;;;;25.55;50.77;101836.00;6218724;22;47259;-80
2023/10/07 12:53:18;;;;;;;;;8.00;6.67;;;;;25.60;50.81;101844.06;6219720;22;44941;-82
2023/10/07 12:55:48;;;;;;;;;7.33;5.33;;;;;25.80;50.63;101840.72;6219707;22;46010;-81
2023/10/07 12:58:19;;;;;;;;;7.67;7.00;;;;;25.78;51.01;101831.69;6247888;22;44756;-81
2023/10/07 13:00:45;;;;;;;;;8.33;8.00;;;;;25.70;50.98;101851.88;6219852;22;47009;-81
2023/10/07 13:03:12;;;;;;;;;8.33;7.00;;;;;25.77;50.39;101846.25;6248821;22;45292;-81
2023/10/07 13:05:45;;;;;;;;;6.67;6.67;;;;;25.97;50.45;101824.72;6220728;22;44799;-81
2023/10/07 13:08:18;;;;;;;;;7.33;5.67;;;;;25.83;50.39;101832.41;6220840;22;44745;-81
2023/10/07 13:10:45;;;;;;;;;8.67;4.67;;;;;25.86;49.90;101833.22;6218824;22;47599;-81
2023/10/07 13:13:13;;;;;;;;;5.25;5.25;;;;;25.78;49.91;101815.34;6247516;22;45284;-81
2023/10/07 13:15:43;;;;;;;;;5.33;5.33;;;;;25.82;50.07;101797.94;6219497;22;45739;-81
2023/10/07 13:18:09;;;;;;;;;5.33;5.33;;;;;25.89;49.86;101821.31;6247239;22;45308;-82
2023/10/07 13:20:38;;;;;;;;;5.00;5.00;;;;;25.88;50.45;101814.97;6248216;22;45285;-81
2023/10/07 13:23:05;;;;;;;;;7.00;6.00;;;;;25.83;50.04;101805.16;6220973;22;45279;-81
2023/10/07 13:25:33;;;;;;;;;6.75;6.75;;;;;25.98;50.15;101821.06;6247459;22;45434;-81
2023/10/07 13:28:00;;;;;;;;;9.25;6.00;;;;;25.83;49.97;101797.00;6214374;22;44761;-81
2023/10/07 13:30:26;;;;;;;;;4.33;4.33;;;;;25.83;49.50;101792.44;6241901;22;45401;-81
2023/10/07 13:32:54;;;;;;;;;7.33;6.67;;;;;25.94;50.10;101794.84;6246211;22;44661;-81
2023/10/07 13:35:20;;;;;;;;;5.50;5.50;;;;;26.09;49.65;101821.56;6247409;22;45109;-81
2023/10/07 13:37:49;;;;;;;;;6.25;5.00;;;;;26.02;49.50;101787.31;6245253;22;44827;-81
2023/10/07 13:40:16;;;;;;;;;5.00;5.00;;;;;26.14;49.64;101814.16;6243861;22;46950;-81
2023/10/07 13:42:53;;;;;;;;;5.00;5.00;;;;;26.32;49.41;101809.91;6219824;22;45310;-82
2023/10/07 13:45:23;;;;;;;;;8.33;6.00;;;;;26.09;49.49;101782.53;6245712;22;44833;-82
2023/10/07 13:47:52;;;;;;;;;5.67;5.67;;;;;26.14;49.39;101803.25;6244810;22;44764;-82
2023/10/07 13:50:26;;;;;;;;;6.00;6.00;;;;;26.30;49.37;101795.44;6245680;22;45079;-82
2023/10/07 13:53:12;;;;;;;;;6.00;5.00;;;;;26.20;49.49;101788.50;6219383;22;45830;-82
2023/10/07 13:58:45;;;;;;;;;9.00;9.00;;;;;26.53;48.80;101793.72;6245832;22;44823;-82
2023/10/07 14:01:12;;;;;;;;;5.50;5.50;;;;;26.41;49.29;101795.03;6220623;22;47402;-82
2023/10/07 14:03:39;;;;;;;;;7.00;6.33;;;;;26.26;49.34;101784.69;6219690;22;45366;-82
2023/10/07 14:06:06;;;;;;;;;5.67;5.33;;;;;26.22;49.25;101769.34;6219214;22;45286;-81
2023/10/07 14:08:36;;;;;;;;;4.00;4.00;;;;;26.18;48.82;101751.31;6218591;22;45238;-82
2023/10/07 14:11:06;;;;;;;;;6.67;6.67;;;;;26.52;49.03;101783.72;6219722;22;46877;-82
2023/10/07 14:13:35;;;;;;;;;4.33;4.33;;;;;26.30;49.04;101776.34;6219294;22;44724;-82
2023/10/07 14:16:07;;;;;;;;;8.00;5.00;;;;;26.42;48.78;101785.94;6218624;22;44871;-82
2023/10/07 14:18:34;;;;;;;;;4.25;4.25;;;;;26.43;48.38;101787.69;6245754;22;45550;-82
2023/10/07 14:21:07;;;;;;;;;7.33;5.67;;;;;26.57;48.72;101791.78;6219698;22;47105;-82
2023/10/07 14:23:37;;;;;;;;;8.00;6.33;;;;;26.65;47.65;101792.41;6218363;22;44701;-82
2023/10/07 14:26:12;;;;;;;;;6.00;6.00;;;;;26.63;47.65;101772.47;6247680;22;44840;-81
2023/10/07 14:28:45;;;;;;;;;4.50;4.50;;;;;26.35;48.45;101752.50;6219247;22;44772;-82
2023/10/07 14:31:17;;;;;;;;;6.00;6.00;;;;;26.54;48.73;101770.91;6245290;22;45455;-81
2023/10/07 14:33:43;;;;;;;;;6.75;5.25;;;;;26.44;48.56;101767.66;6219077;22;44929;-82
2023/10/07 14:36:15;;;;;;;;;5.75;5.50;;;;;26.41;48.67;101759.56;6217841;22;44777;-82
2023/10/07 14:38:42;;;;;;;;;7.50;6.00;;;;;26.39;48.22;101746.94;6218255;22;44914;-81
2023/10/07 14:41:11;;;;;;;;;5.50;4.50;;;;;26.46;47.90;101737.56;6220224;22;47130;-82
2023/10/07 14:43:36;;;;;;;;;5.75;5.50;;;;;26.40;48.33;101738.72;6219876;22;45373;-82
2023/10/07 14:46:10;;;;;;;;;7.00;5.67;;;;;26.46;48.26;101737.56;6248180;22;44838;-81
2023/10/07 14:48:49;;;;;;;;;5.00;5.00;;;;;26.70;47.58;101758.56;6246147;22;44821;-82
2023/10/07 14:51:17;;;;;;;;;7.00;5.67;;;;;26.52;47.68;101749.19;6218649;22;46843;-82
2023/10/07 14:53:43;;;;;;;;;5.00;5.00;;;;;26.59;47.43;101759.91;6218829;22;45220;-81
2023/10/07 14:56:18;;;;;;;;;4.67;4.67;;;;;26.73;47.94;101758.44;6220370;22;44844;-82
2023/10/07 14:58:47;;;;;;;;;4.00;4.00;;;;;26.64;47.50;101755.16;6247886;22;45390;-82
2023/10/07 15:01:13;;;;;;;;;8.67;6.00;;;;;26.54;48.02;101743.63;6218828;22;46942;-82
2023/10/07 15:03:40;;;;;;;;;8.00;6.67;;;;;26.67;48.05;101763.22;6246348;22;45480;-81
2023/10/07 15:06:07;;;;;;;;;5.00;5.00;;;;;26.59;47.34;101744.41;6218379;22;45300;-82
2023/10/07 15:08:35;;;;;;;;;5.67;5.67;;;;;26.60;47.48;101756.22;6220344;22;45361;-82
2023/10/07 15:11:03;;;;;;;;;5.00;5.00;;;;;26.78;47.65;101750.06;6247715;22;45367;-82
2023/10/07 15:13:30;;;;;;;;;5.25;3.75;;;;;26.67;47.77;101752.31;6246592;22;45775;-82
2023/10/07 15:15:55;;;;;;;;;6.67;5.67;;;;;26.60;47.31;101746.22;6218859;22;44795;-81
2023/10/07 15:18:20;;;;;;;;;5.00;5.00;;;;;26.67;47.21;101757.78;6248337;22;44689;-82
2023/10/07 15:20:46;;;;;;;;;9.25;5.50;;;;;26.69;47.42;101753.16;6246889;22;45040;-82
2023/10/07 15:23:12;;;;;;;;;4.33;4.33;;;;;26.64;47.31;101747.88;6246731;22;45277;-82
2023/10/07 15:25:57;;;;;;;;;4.25;4.00;;;;;26.74;47.26;101753.84;6218797;22;44770;-82
2023/10/07 15:28:23;;;;;;;;;4.00;3.75;;;;;26.74;47.21;101745.66;6220021;22;44784;-81
2023/10/07 19:00:33;;;;;;;;;12.33;11.67;;;;;23.82;53.77;101804.44;6070588;22;45838;31
2023/10/07 19:03:10;;;;;;;;;6.00;4.67;;;;;23.73;53.77;101802.81;6129423;23;44858;-81
2023/10/07 19:05:36;;;;;;;;;11.33;9.00;;;;;23.49;53.88;101795.22;6129548;23;44774;-80
2023/10/07 19:08:01;;;;;;;;;13.33;10.67;;;;;23.47;54.29;101794.38;6130147;23;45271;-80
2023/10/07 19:10:26;;;;;;;;;15.33;14.33;;;;;23.42;54.51;101788.16;6103019;23;44786;-81
2023/10/07 19:12:52;;;;;;;;;14.33;14.33;;;;;23.46;54.37;101795.31;6130329;23;44812;-81
2023/10/07 19:15:17;;;;;;;;;13.00;12.33;;;;;23.49;54.46;101803.38;6103918;23;44842;-81
2023/10/07 19:17:43;;;;;;;;;15.33;15.33;;;;;23.48;54.64;101801.59;6127408;23;47026;-81
2023/10/07 19:20:08;;;;;;;;;18.33;17.00;;;;;23.31;54.31;101772.13;6129107;23;44930;-81
2023/10/07 19:22:40;;;;;;;;;13.33;13.33;;;;;23.39;54.84;101793.66;6126592;23;44831;-81
2023/10/07 19:25:07;;;;;;;;;16.33;16.33;;;;;23.36;54.66;101776.50;6127160;23;44867;-80
2023/10/07 19:27:33;;;;;;;;;17.67;16.33;;;;;23.43;54.33;101800.81;6102636;23;47140;-80
2023/10/07 19:29:58;;;;;;;;;20.33;18.33;;;;;23.29;54.26;101777.59;6128713;23;45240;-81
2023/10/07 19:32:26;;;;;;;;;20.67;18.33;;;;;23.24;54.84;101776.78;6128521;23;44779;-81
2023/10/07 19:34:57;;;;;;;;;18.33;17.33;;;;;23.41;54.84;101770.06;6127725;23;45014;-81
2023/10/07 19:40:46;;;;;;;;;23.00;22.00;;;;;23.17;56.01;101781.47;6157040;23;45036;-81
2023/10/07 19:43:13;;;;;;;;;19.67;19.67;;;;;23.20;56.53;101790.47;6130011;23;44864;-81
2023/10/07 19:45:38;;;;;;;;;21.33;20.33;;;;;23.19;56.35;101795.00;6129963;23;44796;-81
2023/10/07 19:48:04;;;;;;;;;22.00;21.67;;;;;23.03;56.57;101775.44;6155210;23;45327;-81
2023/10/07 19:50:35;;;;;;;;;19.00;18.00;;;;;23.07;56.60;101784.41;6156067;23;44894;-81
2023/10/07 19:53:09;;;;;;;;;18.33;15.67;;;;;23.28;56.37;101778.50;6153862;23;44802;-81
2023/10/07 19:55:48;;;;;;;;;13.00;12.67;;;;;23.08;56.30;101751.81;6130538;23;45263;-81
2023/10/07 19:58:16;;;;;;;;;16.33;15.67;;;;;22.91;56.38;101760.28;6155344;23;46970;-80
2023/10/07 20:00:44;;;;;;;;;15.00;13.33;;;;;23.21;56.19;101793.16;6131292;23;44837;-81
2023/10/07 20:03:16;;;;;;;;;10.67;10.33;;;;;23.10;55.79;101797.91;6154738;23;44848;-81
2023/10/07 20:05:44;;;;;;;;;10.67;10.00;;;;;23.10;55.20;101806.03;6154636;23;44935;-81
2023/10/07 20:08:12;;;;;;;;;9.00;9.00;;;;;23.09;55.57;101810.59;6156994;23;45449;-81
2023/10/07 20:10:41;;;;;;;;;10.67;9.33;;;;;23.08;55.11;101803.34;6179602;23;45274;-81
2023/10/07 20:13:07;;;;;;;;;13.33;12.33;;;;;23.07;55.63;101811.56;6131010;23;44714;-81
2023/10/07 20:15:32;;;;;;;;;17.67;14.67;;;;;23.10;55.54;101816.91;6158268;23;44769;-81
2023/10/07 20:17:58;;;;;;;;;15.00;15.00;;;;;23.03;55.76;101805.28;6206770;22;47107;-81
2023/10/07 20:20:23;;;;;;;;;12.33;12.33;;;;;23.07;55.69;101811.56;6205507;22;45376;-81
2023/10/07 20:22:48;;;;;;;;;13.67;13.33;;;;;23.03;55.76;101810.72;6157677;23;44806;-81
2023/10/07 20:25:14;;;;;;;;;15.00;12.67;;;;;23.09;55.59;101823.28;6205736;22;44817;-81
2023/10/07 20:27:40;;;;;;;;;13.00;11.00;;;;;23.08;55.44;101821.47;6178466;23;47313;-81
2023/10/07 20:30:06;;;;;;;;;9.00;9.00;;;;;23.09;55.06;101816.00;6155636;23;44777;-81
2023/10/07 20:32:35;;;;;;;;;9.67;9.67;;;;;23.24;55.36;101820.22;6156113;23;44825;-81
2023/10/07 20:35:04;;;;;;;;;9.00;9.00;;;;;23.17;54.82;101816.75;6157003;23;44780;-80
2023/10/07 20:37:32;;;;;;;;;10.67;10.67;;;;;23.17;55.29;101819.47;6155681;23;45897;-80
2023/10/07 20:39:59;;;;;;;;;11.00;9.33;;;;;23.00;55.37;101815.28;6155979;23;44837;-81
2023/10/07 20:42:25;;;;;;;;;9.67;8.33;;;;;22.99;55.01;101808.06;6179101;23;44739;-81
2023/10/07 20:44:50;;;;;;;;;11.67;11.33;;;;;22.96;55.19;101804.47;6180226;23;44948;-81
2023/10/07 20:47:16;;;;;;;;;7.75;6.50;;;;;22.99;54.98;101816.22;6154391;23;47008;-81
2023/10/07 20:49:42;;;;;;;;;10.00;8.33;;;;;22.95;54.72;101812.66;6179658;23;44890;-81
2023/10/07 20:52:08;;;;;;;;;7.00;7.00;;;;;22.95;55.10;101810.84;6154542;23;44753;-80
2023/10/07 20:54:34;;;;;;;;;9.00;8.00;;;;;22.97;55.11;101805.38;6179503;23;44740;-81
2023/10/07 20:56:59;;;;;;;;;8.00;7.00;;;;;22.96;54.95;101820.75;6155932;23;47046;-81
2023/10/07 20:59:28;;;;;;;;;9.33;9.00;;;;;22.98;54.74;101809.88;6159845;23;44863;-81
2023/10/07 21:01:54;;;;;;;;;10.00;9.67;;;;;22.96;54.69;101819.84;6156109;23;44785;-81
2023/10/07 21:04:19;;;;;;;;;9.33;8.33;;;;;22.94;54.59;101810.84;6130180;23;44915;-81
2023/10/07 21:06:45;;;;;;;;;12.00;11.00;;;;;22.91;54.56;101822.69;6159921;23;44953;-81
2023/10/07 21:09:10;;;;;;;;;11.33;10.33;;;;;22.91;55.09;101813.66;6157329;23;45272;-81
2023/10/07 21:11:39;;;;;;;;;11.00;11.00;;;;;23.11;54.87;101821.41;6155441;23;44773;-80
2023/10/07 21:14:05;;;;;;;;;14.00;14.00;;;;;22.88;55.10;101817.28;6156806;23;45144;-80
2023/10/07 21:16:30;;;;;;;;;12.33;12.33;;;;;22.83;55.17;101810.19;6156707;23;45339;-81
2023/10/07 21:18:58;;;;;;;;;13.67;12.33;;;;;22.80;55.53;101813.84;6157024;23;45309;-81
2023/10/07 21:21:24;;;;;;;;;27.33;21.67;;;;;22.81;55.67;101821.06;6155254;23;45359;-80
2023/10/07 21:23:50;;;;;;;;;21.33;20.00;;;;;22.76;55.46;101817.53;6130903;23;44794;-80
2023/10/07 21:26:26;;;;;;;;;24.00;23.67;;;;;22.87;56.13;101828.19;6155088;23;50241;-81
2023/10/07 21:28:54;;;;;;;;;23.00;23.00;;;;;22.85;55.88;101828.22;6182222;23;44878;-81
2023/10/07 21:31:20;;;;;;;;;29.67;29.00;;;;;22.69;55.92;101826.72;6133068;23;44853;-81
2023/10/07 21:33:46;;;;;;;;;26.33;25.00;;;;;22.66;55.99;101826.78;6159138;23;44794;-81
2023/10/07 21:36:11;;;;;;;;;26.33;22.67;;;;;22.61;56.75;101821.44;6159490;23;45266;-81
2023/10/07 21:38:42;;;;;;;;;25.67;25.33;;;;;22.57;56.63;101822.44;6155576;23;44826;-82
2023/10/07 21:41:08;;;;;;;;;22.67;21.00;;;;;22.61;56.84;101828.69;6157407;23;44811;-81
2023/10/07 21:43:33;;;;;;;;;21.00;19.67;;;;;22.54;56.67;101815.25;6159237;23;44703;-80
2023/10/07 21:45:59;;;;;;;;;25.67;22.00;;;;;22.57;56.56;101811.59;6159063;23;45095;-80
2023/10/07 21:48:26;;;;;;;;;21.00;17.00;;;;;22.55;56.65;101817.03;6157561;23;45375;-80
2023/10/07 21:50:52;;;;;;;;;24.00;20.00;;;;;22.53;56.67;101816.16;6156509;22;44860;-80
2023/10/07 21:53:17;;;;;;;;;25.00;23.33;;;;;22.51;56.96;101812.59;6130520;23;45313;-80
2023/10/07 21:55:49;;;;;;;;;24.00;22.67;;;;;22.68;57.13;101816.78;6156693;23;45401;-81
2023/10/07 21:58:14;;;;;;;;;28.67;24.33;;;;;22.42;57.60;101818.19;6178984;23;45123;-81
2023/10/07 22:00:45;;;;;;;;;23.67;21.33;;;;;22.54;57.58;101812.53;6180448;23;44985;-81
2023/10/07 22:03:17;;;;;;;;;26.00;25.00;;;;;22.36;57.80;101819.19;6156642;23;45213;-81
2023/10/07 22:05:44;;;;;;;;;23.67;21.33;;;;;22.37;57.94;101826.38;6205829;22;47172;-81
2023/10/07 22:08:10;;;;;;;;;27.00;25.33;;;;;22.29;57.97;101822.91;6153862;23;44747;-81
2023/10/07 22:10:36;;;;;;;;;21.00;19.33;;;;;22.14;58.17;101804.19;6180507;23;45260;-81
2023/10/07 22:13:08;;;;;;;;;23.67;21.00;;;;;22.24;58.48;101810.38;6205627;22;44967;-81